sensor_id;sensor_type;location;lat;lon;timestamp;pressure;altitude;pressure_sealevel;temperature;humidity
35479;BME280;21594;49.794;18.652;2022-08-18T00:04:39;97805.61;;;21.48;100.00
35479;BME280;21594;49.794;18.652;2022-08-18T00:07:10;97803.20;;;21.42;100.00
35479;BME280;21594;49.794;18.652;2022-08-18T00:09:37;97802.63;;;21.25;100.00
35479;BME280;21594;49.794;18.652;2022-08-18T00:12:08;97801.88;;;21.06;100.00
35479;BME280;21594;49.794;18.652;2022-08-18T00:14:38;97809.84;;;20.96;100.00
35479;BME280;21594;49.794;18.652;2022-08-18T00:17:03;97804.52;;;20.96;100.00
35479;BME280;21594;49.794;18.652;2022-08-18T00:19:29;97800.94;;;21.03;100.00
35479;BME280;21594;49.794;18.652;2022-08-18T00:21:56;97800.52;;;21.10;100.00
35479;BME280;21594;49.794;18.652;2022-08-18T00:24:24;97805.83;;;21.10;100.00
35479;BME280;21594;49.794;18.652;2022-08-18T00:26:53;97801.02;;;21.10;100.00
35479;BME280;21594;49.794;18.652;2022-08-18T00:29:25;97797.96;;;21.13;100.00
35479;BME280;21594;49.794;18.652;2022-08-18T00:31:49;97802.45;;;21.16;100.00
35479;BME280;21594;49.794;18.652;2022-08-18T00:34:15;97807.20;;;21.21;100.00
35479;BME280;21594;49.794;18.652;2022-08-18T00:36:41;97812.02;;;21.21;100.00
35479;BME280;21594;49.794;18.652;2022-08-18T00:39:08;97811.81;;;21.23;100.00
35479;BME280;21594;49.794;18.652;2022-08-18T00:41:34;97807.70;;;21.20;100.00
35479;BME280;21594;49.794;18.652;2022-08-18T00:44:04;97807.45;;;21.15;100.00
35479;BME280;21594;49.794;18.652;2022-08-18T00:46:34;97813.60;;;21.16;100.00
35479;BME280;21594;49.794;18.652;2022-08-18T00:49:00;97802.12;;;21.15;100.00
35479;BME280;21594;49.794;18.652;2022-08-18T00:51:33;97802.78;;;21.13;100.00
35479;BME280;21594;49.794;18.652;2022-08-18T00:54:14;97800.01;;;21.11;100.00
35479;BME280;21594;49.794;18.652;2022-08-18T00:56:48;97802.53;;;21.08;100.00
35479;BME280;21594;49.794;18.652;2022-08-18T01:01:59;97803.41;;;20.94;100.00
35479;BME280;21594;49.794;18.652;2022-08-18T01:04:55;97793.13;;;20.91;100.00
35479;BME280;21594;49.794;18.652;2022-08-18T01:07:24;97783.95;;;20.94;100.00
35479;BME280;21594;49.794;18.652;2022-08-18T01:09:49;97785.64;;;20.91;100.00
35479;BME280;21594;49.794;18.652;2022-08-18T01:12:17;97792.61;;;20.81;100.00
35479;BME280;21594;49.794;18.652;2022-08-18T01:14:51;97796.72;;;20.73;100.00
35479;BME280;21594;49.794;18.652;2022-08-18T01:20:05;97794.06;;;20.73;100.00
35479;BME280;21594;49.794;18.652;2022-08-18T01:23:03;97784.69;;;20.77;100.00
35479;BME280;21594;49.794;18.652;2022-08-18T01:25:25;97783.62;;;20.82;100.00
35479;BME280;21594;49.794;18.652;2022-08-18T01:28:10;97775.98;;;20.68;100.00
35479;BME280;21594;49.794;18.652;2022-08-18T01:30:48;97773.92;;;20.49;100.00
35479;BME280;21594;49.794;18.652;2022-08-18T01:33:17;97772.91;;;20.35;100.00
35479;BME280;21594;49.794;18.652;2022-08-18T01:35:46;97769.13;;;20.34;100.00
35479;BME280;21594;49.794;18.652;2022-08-18T01:38:16;97775.78;;;20.34;100.00
35479;BME280;21594;49.794;18.652;2022-08-18T01:40:45;97771.28;;;20.30;100.00
35479;BME280;21594;49.794;18.652;2022-08-18T01:43:12;97769.63;;;20.33;100.00
35479;BME280;21594;49.794;18.652;2022-08-18T01:45:39;97769.81;;;20.32;100.00
35479;BME280;21594;49.794;18.652;2022-08-18T01:48:06;97777.05;;;20.38;100.00
35479;BME280;21594;49.794;18.652;2022-08-18T01:50:33;97784.58;;;20.34;100.00
35479;BME280;21594;49.794;18.652;2022-08-18T01:53:03;97778.66;;;20.24;100.00
35479;BME280;21594;49.794;18.652;2022-08-18T01:55:32;97773.67;;;20.25;100.00
35479;BME280;21594;49.794;18.652;2022-08-18T01:58:02;97776.60;;;20.34;100.00
35479;BME280;21594;49.794;18.652;2022-08-18T02:00:29;97776.98;;;20.42;100.00
35479;BME280;21594;49.794;18.652;2022-08-18T02:02:59;97773.62;;;20.33;100.00
35479;BME280;21594;49.794;18.652;2022-08-18T02:05:38;97770.95;;;20.29;100.00
35479;BME280;21594;49.794;18.652;2022-08-18T02:08:05;97778.66;;;20.24;100.00
35479;BME280;21594;49.794;18.652;2022-08-18T02:10:33;97776.44;;;20.17;100.00
35479;BME280;21594;49.794;18.652;2022-08-18T02:12:59;97779.31;;;20.26;100.00
35479;BME280;21594;49.794;18.652;2022-08-18T02:15:26;97780.58;;;20.30;100.00
35479;BME280;21594;49.794;18.652;2022-08-18T02:17:52;97790.70;;;20.31;100.00
35479;BME280;21594;49.794;18.652;2022-08-18T02:20:19;97788.61;;;20.26;100.00
35479;BME280;21594;49.794;18.652;2022-08-18T02:22:46;97797.26;;;20.24;100.00
35479;BME280;21594;49.794;18.652;2022-08-18T02:25:14;97797.76;;;20.24;100.00
35479;BME280;21594;49.794;18.652;2022-08-18T02:30:11;97794.30;;;20.23;100.00
35479;BME280;21594;49.794;18.652;2022-08-18T02:32:37;97797.31;;;20.20;100.00
35479;BME280;21594;49.794;18.652;2022-08-18T02:35:05;97805.89;;;20.12;100.00
35479;BME280;21594;49.794;18.652;2022-08-18T02:37:32;97808.99;;;20.00;100.00
35479;BME280;21594;49.794;18.652;2022-08-18T02:40:00;97808.22;;;19.96;100.00
35479;BME280;21594;49.794;18.652;2022-08-18T02:42:27;97806.52;;;19.80;100.00
35479;BME280;21594;49.794;18.652;2022-08-18T02:44:53;97802.34;;;19.67;100.00
35479;BME280;21594;49.794;18.652;2022-08-18T02:47:20;97801.11;;;19.55;100.00
35479;BME280;21594;49.794;18.652;2022-08-18T02:49:47;97795.39;;;19.47;100.00
35479;BME280;21594;49.794;18.652;2022-08-18T02:54:40;97792.46;;;19.34;100.00
35479;BME280;21594;49.794;18.652;2022-08-18T02:57:09;97792.30;;;19.32;100.00
35479;BME280;21594;49.794;18.652;2022-08-18T02:59:37;97785.70;;;19.28;100.00
35479;BME280;21594;49.794;18.652;2022-08-18T03:02:05;97787.41;;;19.25;100.00
35479;BME280;21594;49.794;18.652;2022-08-18T03:04:35;97785.25;;;19.24;100.00
35479;BME280;21594;49.794;18.652;2022-08-18T03:07:03;97780.48;;;19.38;100.00
35479;BME280;21594;49.794;18.652;2022-08-18T03:09:32;97790.27;;;19.38;100.00
35479;BME280;21594;49.794;18.652;2022-08-18T03:11:59;97786.41;;;19.21;100.00
35479;BME280;21594;49.794;18.652;2022-08-18T03:14:26;97784.33;;;19.13;100.00
35479;BME280;21594;49.794;18.652;2022-08-18T03:16:53;97785.70;;;19.09;100.00
35479;BME280;21594;49.794;18.652;2022-08-18T03:19:19;97784.37;;;19.09;100.00
35479;BME280;21594;49.794;18.652;2022-08-18T03:24:12;97791.22;;;19.22;100.00
35479;BME280;21594;49.794;18.652;2022-08-18T03:26:40;97792.58;;;19.41;100.00
35479;BME280;21594;49.794;18.652;2022-08-18T03:29:08;97794.02;;;19.51;100.00
35479;BME280;21594;49.794;18.652;2022-08-18T03:31:35;97792.81;;;19.54;100.00
35479;BME280;21594;49.794;18.652;2022-08-18T03:34:04;97794.84;;;19.52;100.00
35479;BME280;21594;49.794;18.652;2022-08-18T03:36:32;97799.83;;;19.51;100.00
35479;BME280;21594;49.794;18.652;2022-08-18T03:39:05;97795.80;;;19.55;100.00
35479;BME280;21594;49.794;18.652;2022-08-18T03:41:31;97799.73;;;19.63;100.00
35479;BME280;21594;49.794;18.652;2022-08-18T03:44:00;97804.49;;;19.68;100.00
35479;BME280;21594;49.794;18.652;2022-08-18T03:46:26;97808.60;;;19.70;100.00
35479;BME280;21594;49.794;18.652;2022-08-18T03:48:54;97805.45;;;19.71;100.00
35479;BME280;21594;49.794;18.652;2022-08-18T03:51:23;97813.08;;;19.70;100.00
35479;BME280;21594;49.794;18.652;2022-08-18T03:53:51;97810.91;;;19.73;100.00
35479;BME280;21594;49.794;18.652;2022-08-18T03:56:22;97810.54;;;19.76;100.00
35479;BME280;21594;49.794;18.652;2022-08-18T03:58:55;97813.70;;;19.76;100.00
35479;BME280;21594;49.794;18.652;2022-08-18T04:01:21;97816.84;;;19.79;100.00
35479;BME280;21594;49.794;18.652;2022-08-18T04:03:50;97818.29;;;19.82;100.00
35479;BME280;21594;49.794;18.652;2022-08-18T04:06:24;97805.67;;;19.84;100.00
35479;BME280;21594;49.794;18.652;2022-08-18T04:08:52;97811.30;;;19.85;100.00
35479;BME280;21594;49.794;18.652;2022-08-18T04:11:19;97813.77;;;19.86;100.00
35479;BME280;21594;49.794;18.652;2022-08-18T04:13:46;97810.61;;;19.87;100.00
35479;BME280;21594;49.794;18.652;2022-08-18T04:16:13;97809.76;;;19.72;100.00
35479;BME280;21594;49.794;18.652;2022-08-18T04:18:39;97808.73;;;19.58;100.00
35479;BME280;21594;49.794;18.652;2022-08-18T04:21:09;97815.59;;;19.48;100.00
35479;BME280;21594;49.794;18.652;2022-08-18T04:23:36;97804.34;;;19.46;100.00
35479;BME280;21594;49.794;18.652;2022-08-18T04:26:04;97807.53;;;19.60;100.00
35479;BME280;21594;49.794;18.652;2022-08-18T04:28:31;97812.91;;;19.71;100.00
35479;BME280;21594;49.794;18.652;2022-08-18T04:31:12;97812.43;;;19.86;100.00
35479;BME280;21594;49.794;18.652;2022-08-18T04:33:40;97813.80;;;20.01;100.00
35479;BME280;21594;49.794;18.652;2022-08-18T04:36:12;97816.86;;;20.09;100.00
35479;BME280;21594;49.794;18.652;2022-08-18T04:38:39;97818.34;;;20.11;100.00
35479;BME280;21594;49.794;18.652;2022-08-18T04:41:12;97818.67;;;20.12;100.00
35479;BME280;21594;49.794;18.652;2022-08-18T04:43:40;97814.48;;;20.14;100.00
35479;BME280;21594;49.794;18.652;2022-08-18T04:46:07;97813.48;;;20.15;100.00
35479;BME280;21594;49.794;18.652;2022-08-18T04:48:38;97813.08;;;20.07;100.00
35479;BME280;21594;49.794;18.652;2022-08-18T04:51:05;97817.56;;;20.07;100.00
35479;BME280;21594;49.794;18.652;2022-08-18T04:53:33;97811.98;;;20.16;100.00
35479;BME280;21594;49.794;18.652;2022-08-18T04:56:18;97811.02;;;20.28;100.00
35479;BME280;21594;49.794;18.652;2022-08-18T04:58:48;97809.00;;;20.34;100.00
35479;BME280;21594;49.794;18.652;2022-08-18T05:01:18;97807.86;;;20.28;100.00
35479;BME280;21594;49.794;18.652;2022-08-18T05:03:50;97812.77;;;20.35;100.00
35479;BME280;21594;49.794;18.652;2022-08-18T05:06:18;97813.97;;;20.48;100.00
35479;BME280;21594;49.794;18.652;2022-08-18T05:08:58;97813.56;;;20.55;100.00
35479;BME280;21594;49.794;18.652;2022-08-18T05:11:28;97814.95;;;20.51;100.00
35479;BME280;21594;49.794;18.652;2022-08-18T05:13:57;97813.05;;;20.55;100.00
35479;BME280;21594;49.794;18.652;2022-08-18T05:16:23;97815.69;;;20.70;100.00
35479;BME280;21594;49.794;18.652;2022-08-18T05:18:50;97817.99;;;20.73;100.00
35479;BME280;21594;49.794;18.652;2022-08-18T05:21:20;97814.95;;;20.76;100.00
35479;BME280;21594;49.794;18.652;2022-08-18T05:23:48;97821.12;;;20.87;100.00
35479;BME280;21594;49.794;18.652;2022-08-18T05:26:17;97817.80;;;21.00;100.00
35479;BME280;21594;49.794;18.652;2022-08-18T05:28:45;97811.66;;;21.10;100.00
35479;BME280;21594;49.794;18.652;2022-08-18T05:31:17;97808.10;;;21.13;100.00
35479;BME280;21594;49.794;18.652;2022-08-18T05:33:45;97803.78;;;21.16;100.00
35479;BME280;21594;49.794;18.652;2022-08-18T05:39:24;97812.64;;;21.34;100.00
35479;BME280;21594;49.794;18.652;2022-08-18T05:44:29;97808.89;;;21.39;100.00
35479;BME280;21594;49.794;18.652;2022-08-18T05:49:49;97810.30;;;21.24;100.00
35479;BME280;21594;49.794;18.652;2022-08-18T05:52:21;97799.47;;;21.15;100.00
35479;BME280;21594;49.794;18.652;2022-08-18T05:54:51;97803.79;;;21.12;100.00
35479;BME280;21594;49.794;18.652;2022-08-18T05:57:48;97810.77;;;21.13;100.00
35479;BME280;21594;49.794;18.652;2022-08-18T06:00:11;97807.45;;;21.11;100.00
35479;BME280;21594;49.794;18.652;2022-08-18T06:02:54;97818.09;;;21.15;100.00
35479;BME280;21594;49.794;18.652;2022-08-18T06:05:23;97815.55;;;21.28;100.00
35479;BME280;21594;49.794;18.652;2022-08-18T06:08:04;97819.94;;;21.47;100.00
35479;BME280;21594;49.794;18.652;2022-08-18T06:10:29;97814.34;;;21.63;100.00
35479;BME280;21594;49.794;18.652;2022-08-18T06:12:58;97818.97;;;21.76;100.00
35479;BME280;21594;49.794;18.652;2022-08-18T06:21:00;97823.45;;;21.86;100.00
35479;BME280;21594;49.794;18.652;2022-08-18T06:26:24;97824.41;;;21.78;100.00
35479;BME280;21594;49.794;18.652;2022-08-18T06:29:11;97824.59;;;21.77;100.00
35479;BME280;21594;49.794;18.652;2022-08-18T06:34:24;97824.72;;;21.79;100.00
35479;BME280;21594;49.794;18.652;2022-08-18T06:39:44;97828.84;;;22.03;100.00
35479;BME280;21594;49.794;18.652;2022-08-18T06:42:11;97833.88;;;22.19;100.00
35479;BME280;21594;49.794;18.652;2022-08-18T06:44:43;97833.11;;;22.32;100.00
35479;BME280;21594;49.794;18.652;2022-08-18T06:47:31;97832.56;;;22.43;100.00
35479;BME280;21594;49.794;18.652;2022-08-18T06:52:56;97838.91;;;22.52;100.00
35479;BME280;21594;49.794;18.652;2022-08-18T06:55:40;97840.69;;;22.63;100.00
35479;BME280;21594;49.794;18.652;2022-08-18T06:58:20;97845.84;;;22.71;100.00
35479;BME280;21594;49.794;18.652;2022-08-18T07:00:55;97845.69;;;22.72;100.00
35479;BME280;21594;49.794;18.652;2022-08-18T07:03:41;97842.01;;;22.73;100.00
35479;BME280;21594;49.794;18.652;2022-08-18T07:08:49;97844.52;;;22.88;100.00
35479;BME280;21594;49.794;18.652;2022-08-18T07:13:56;97849.64;;;23.07;100.00
35479;BME280;21594;49.794;18.652;2022-08-18T07:19:13;97843.64;;;23.28;100.00
35479;BME280;21594;49.794;18.652;2022-08-18T07:21:42;97838.92;;;23.37;100.00
35479;BME280;21594;49.794;18.652;2022-08-18T07:24:24;97837.80;;;23.42;100.00
35479;BME280;21594;49.794;18.652;2022-08-18T07:29:33;97835.88;;;23.47;100.00
35479;BME280;21594;49.794;18.652;2022-08-18T07:32:10;97833.65;;;23.50;100.00
35479;BME280;21594;49.794;18.652;2022-08-18T07:34:46;97831.58;;;23.52;100.00
35479;BME280;21594;49.794;18.652;2022-08-18T07:37:17;97829.43;;;23.58;100.00
35479;BME280;21594;49.794;18.652;2022-08-18T07:39:52;97830.36;;;23.68;100.00
35479;BME280;21594;49.794;18.652;2022-08-18T07:42:34;97830.56;;;23.73;100.00
35479;BME280;21594;49.794;18.652;2022-08-18T07:45:05;97825.85;;;23.82;100.00
35479;BME280;21594;49.794;18.652;2022-08-18T07:47:43;97829.64;;;23.90;100.00
35479;BME280;21594;49.794;18.652;2022-08-18T07:50:08;97829.64;;;23.96;100.00
35479;BME280;21594;49.794;18.652;2022-08-18T07:52:40;97830.27;;;24.05;100.00
35479;BME280;21594;49.794;18.652;2022-08-18T07:57:59;97829.88;;;24.21;100.00
35479;BME280;21594;49.794;18.652;2022-08-18T08:06:23;97831.04;;;24.45;100.00
35479;BME280;21594;49.794;18.652;2022-08-18T08:11:58;97834.27;;;24.67;100.00
35479;BME280;21594;49.794;18.652;2022-08-18T08:14:38;97837.11;;;24.78;100.00
35479;BME280;21594;49.794;18.652;2022-08-18T08:17:28;97838.85;;;24.88;100.00
35479;BME280;21594;49.794;18.652;2022-08-18T08:22:35;97837.65;;;25.07;100.00
35479;BME280;21594;49.794;18.652;2022-08-18T08:25:22;97840.09;;;25.15;100.00
35479;BME280;21594;49.794;18.652;2022-08-18T08:28:05;97841.99;;;25.23;100.00
35479;BME280;21594;49.794;18.652;2022-08-18T08:30:39;97842.48;;;25.29;100.00
35479;BME280;21594;49.794;18.652;2022-08-18T08:33:19;97845.64;;;25.35;100.00
35479;BME280;21594;49.794;18.652;2022-08-18T08:35:46;97844.78;;;25.41;100.00
35479;BME280;21594;49.794;18.652;2022-08-18T08:38:21;97846.16;;;25.51;100.00
35479;BME280;21594;49.794;18.652;2022-08-18T08:41:02;97851.06;;;25.60;100.00
35479;BME280;21594;49.794;18.652;2022-08-18T08:43:44;97851.75;;;25.65;100.00
35479;BME280;21594;49.794;18.652;2022-08-18T08:46:21;97851.64;;;25.69;100.00
35479;BME280;21594;49.794;18.652;2022-08-18T08:48:55;97858.06;;;25.77;100.00
35479;BME280;21594;49.794;18.652;2022-08-18T08:51:38;97855.03;;;25.82;100.00
35479;BME280;21594;49.794;18.652;2022-08-18T08:54:26;97853.20;;;25.92;100.00
35479;BME280;21594;49.794;18.652;2022-08-18T08:59:22;97860.69;;;26.08;100.00
35479;BME280;21594;49.794;18.652;2022-08-18T09:02:22;97865.18;;;26.14;100.00
35479;BME280;21594;49.794;18.652;2022-08-18T09:04:51;97857.30;;;26.19;100.00
35479;BME280;21594;49.794;18.652;2022-08-18T09:11:18;97861.39;;;26.38;100.00
35479;BME280;21594;49.794;18.652;2022-08-18T09:21:51;97857.38;;;26.74;100.00
35479;BME280;21594;49.794;18.652;2022-08-18T09:24:28;97850.60;;;26.81;100.00
35479;BME280;21594;49.794;18.652;2022-08-18T09:29:47;97854.05;;;26.97;100.00
35479;BME280;21594;49.794;18.652;2022-08-18T09:40:49;97857.46;;;27.13;100.00
35479;BME280;21594;49.794;18.652;2022-08-18T09:43:38;97855.00;;;27.21;100.00
35479;BME280;21594;49.794;18.652;2022-08-18T09:46:06;97851.84;;;27.24;100.00
35479;BME280;21594;49.794;18.652;2022-08-18T09:48:35;97838.71;;;27.25;100.00
35479;BME280;21594;49.794;18.652;2022-08-18T10:10:46;97814.41;;;27.70;100.00
35479;BME280;21594;49.794;18.652;2022-08-18T10:16:08;97809.84;;;27.82;100.00
35479;BME280;21594;49.794;18.652;2022-08-18T10:21:10;97799.80;;;27.89;100.00
35479;BME280;21594;49.794;18.652;2022-08-18T10:23:53;97791.84;;;27.95;100.00
35479;BME280;21594;49.794;18.652;2022-08-18T10:29:41;97790.39;;;28.01;100.00
35479;BME280;21594;49.794;18.652;2022-08-18T10:37:38;97772.11;;;28.12;100.00
35479;BME280;21594;49.794;18.652;2022-08-18T10:48:34;97778.41;;;28.41;100.00
35479;BME280;21594;49.794;18.652;2022-08-18T10:56:42;97779.77;;;28.55;100.00
35479;BME280;21594;49.794;18.652;2022-08-18T10:59:31;97773.94;;;28.58;100.00
35479;BME280;21594;49.794;18.652;2022-08-18T11:02:13;97777.97;;;28.58;100.00
35479;BME280;21594;49.794;18.652;2022-08-18T11:04:45;97775.55;;;28.59;100.00
35479;BME280;21594;49.794;18.652;2022-08-18T11:07:21;97761.33;;;28.61;100.00
35479;BME280;21594;49.794;18.652;2022-08-18T11:09:47;97751.41;;;28.64;100.00
35479;BME280;21594;49.794;18.652;2022-08-18T11:20:13;97744.31;;;28.84;100.00
35479;BME280;21594;49.794;18.652;2022-08-18T11:22:53;97745.75;;;28.89;100.00
35479;BME280;21594;49.794;18.652;2022-08-18T11:25:26;97742.63;;;28.95;100.00
35479;BME280;21594;49.794;18.652;2022-08-18T11:27:52;97737.47;;;28.93;100.00
35479;BME280;21594;49.794;18.652;2022-08-18T11:30:19;97735.59;;;28.94;100.00
35479;BME280;21594;49.794;18.652;2022-08-18T11:32:47;97728.04;;;28.93;100.00
35479;BME280;21594;49.794;18.652;2022-08-18T11:35:31;97721.89;;;28.95;99.69
35479;BME280;21594;49.794;18.652;2022-08-18T11:37:59;97728.42;;;28.99;99.05
35479;BME280;21594;49.794;18.652;2022-08-18T11:40:40;97728.74;;;29.03;98.38
35479;BME280;21594;49.794;18.652;2022-08-18T11:43:18;97730.38;;;29.04;97.79
35479;BME280;21594;49.794;18.652;2022-08-18T11:48:37;97733.34;;;29.19;97.81
35479;BME280;21594;49.794;18.652;2022-08-18T11:53:53;97726.45;;;29.26;96.88
35479;BME280;21594;49.794;18.652;2022-08-18T11:59:00;97721.80;;;29.35;96.31
35479;BME280;21594;49.794;18.652;2022-08-18T12:01:33;97730.23;;;29.39;95.69
35479;BME280;21594;49.794;18.652;2022-08-18T12:06:56;97715.27;;;29.48;94.84
35479;BME280;21594;49.794;18.652;2022-08-18T12:12:30;97711.52;;;29.49;93.34
35479;BME280;21594;49.794;18.652;2022-08-18T12:17:31;97703.43;;;29.49;92.39
35479;BME280;21594;49.794;18.652;2022-08-18T12:20:04;97703.56;;;29.57;92.78
35479;BME280;21594;49.794;18.652;2022-08-18T12:22:36;97703.38;;;29.63;92.41
35479;BME280;21594;49.794;18.652;2022-08-18T12:25:05;97701.20;;;29.63;91.34
35479;BME280;21594;49.794;18.652;2022-08-18T12:27:32;97696.68;;;29.66;90.91
35479;BME280;21594;49.794;18.652;2022-08-18T12:30:00;97683.48;;;29.67;90.46
35479;BME280;21594;49.794;18.652;2022-08-18T12:32:32;97681.05;;;29.68;89.83
35479;BME280;21594;49.794;18.652;2022-08-18T12:35:00;97684.56;;;29.68;89.52
35479;BME280;21594;49.794;18.652;2022-08-18T12:37:27;97686.44;;;29.68;88.97
35479;BME280;21594;49.794;18.652;2022-08-18T12:39:57;97688.91;;;29.69;88.51
35479;BME280;21594;49.794;18.652;2022-08-18T12:42:27;97689.48;;;29.71;88.20
35479;BME280;21594;49.794;18.652;2022-08-18T12:44:53;97694.34;;;29.72;87.48
35479;BME280;21594;49.794;18.652;2022-08-18T12:47:24;97696.22;;;29.71;86.50
35479;BME280;21594;49.794;18.652;2022-08-18T12:49:51;97699.29;;;29.77;86.57
35479;BME280;21594;49.794;18.652;2022-08-18T12:52:19;97702.80;;;29.78;85.78
35479;BME280;21594;49.794;18.652;2022-08-18T12:54:47;97707.45;;;29.82;85.44
35479;BME280;21594;49.794;18.652;2022-08-18T12:57:20;97706.41;;;29.86;84.78
35479;BME280;21594;49.794;18.652;2022-08-18T12:59:43;97705.64;;;29.88;84.07
35479;BME280;21594;49.794;18.652;2022-08-18T13:02:09;97710.61;;;29.93;83.98
35479;BME280;21594;49.794;18.652;2022-08-18T13:04:36;97704.47;;;29.98;84.09
35479;BME280;21594;49.794;18.652;2022-08-18T13:07:03;97705.05;;;30.00;84.20
35479;BME280;21594;49.794;18.652;2022-08-18T13:09:31;97696.44;;;30.03;84.15
35479;BME280;21594;49.794;18.652;2022-08-18T13:11:58;97704.84;;;30.07;84.02
35479;BME280;21594;49.794;18.652;2022-08-18T13:14:26;97703.55;;;30.09;83.79
35479;BME280;21594;49.794;18.652;2022-08-18T13:16:53;97705.48;;;30.14;83.98
35479;BME280;21594;49.794;18.652;2022-08-18T13:19:20;97709.83;;;30.15;83.69
35479;BME280;21594;49.794;18.652;2022-08-18T13:21:47;97714.64;;;30.13;83.00
35479;BME280;21594;49.794;18.652;2022-08-18T13:24:13;97714.05;;;30.08;82.26
35479;BME280;21594;49.794;18.652;2022-08-18T13:26:42;97714.58;;;30.08;81.93
35479;BME280;21594;49.794;18.652;2022-08-18T13:29:09;97714.36;;;30.12;82.21
35479;BME280;21594;49.794;18.652;2022-08-18T13:31:35;97714.94;;;30.14;82.09
35479;BME280;21594;49.794;18.652;2022-08-18T13:34:03;97717.39;;;30.15;81.57
35479;BME280;21594;49.794;18.652;2022-08-18T13:36:32;97717.68;;;30.16;81.37
35479;BME280;21594;49.794;18.652;2022-08-18T13:39:17;97721.69;;;30.14;80.93
35479;BME280;21594;49.794;18.652;2022-08-18T13:41:51;97724.09;;;30.13;80.63
35479;BME280;21594;49.794;18.652;2022-08-18T13:44:20;97728.96;;;30.13;80.39
35479;BME280;21594;49.794;18.652;2022-08-18T13:46:48;97723.80;;;30.12;80.06
35479;BME280;21594;49.794;18.652;2022-08-18T13:49:16;97722.52;;;30.17;80.33
35479;BME280;21594;49.794;18.652;2022-08-18T13:51:44;97712.89;;;30.23;80.68
35479;BME280;21594;49.794;18.652;2022-08-18T13:54:15;97719.24;;;30.34;80.62
35479;BME280;21594;49.794;18.652;2022-08-18T13:56:40;97709.25;;;30.75;81.43
35479;BME280;21594;49.794;18.652;2022-08-18T13:59:08;97711.11;;;31.24;82.27
35479;BME280;21594;49.794;18.652;2022-08-18T14:01:39;97709.84;;;31.63;82.30
35479;BME280;21594;49.794;18.652;2022-08-18T14:04:06;97711.98;;;32.01;81.83
35479;BME280;21594;49.794;18.652;2022-08-18T14:06:33;97705.25;;;32.60;81.81
35479;BME280;21594;49.794;18.652;2022-08-18T14:08:59;97701.85;;;33.03;80.63
35479;BME280;21594;49.794;18.652;2022-08-18T14:11:29;97701.38;;;33.49;80.46
35479;BME280;21594;49.794;18.652;2022-08-18T14:13:55;97700.81;;;33.82;79.06
35479;BME280;21594;49.794;18.652;2022-08-18T14:16:23;97695.89;;;33.99;77.65
35479;BME280;21594;49.794;18.652;2022-08-18T14:18:49;97693.20;;;33.97;76.23
35479;BME280;21594;49.794;18.652;2022-08-18T14:21:38;97689.38;;;34.00;74.85
35479;BME280;21594;49.794;18.652;2022-08-18T14:24:22;97686.85;;;34.32;74.45
35479;BME280;21594;49.794;18.652;2022-08-18T14:27:07;97664.70;;;34.59;71.90
35479;BME280;21594;49.794;18.652;2022-08-18T14:29:33;97664.70;;;34.59;71.90
35479;BME280;21594;49.794;18.652;2022-08-18T14:31:59;97680.03;;;34.39;69.39
35479;BME280;21594;49.794;18.652;2022-08-18T14:34:25;97676.08;;;33.94;67.24
35479;BME280;21594;49.794;18.652;2022-08-18T14:36:51;97672.07;;;33.76;66.27
35479;BME280;21594;49.794;18.652;2022-08-18T14:39:17;97673.97;;;33.48;65.23
35479;BME280;21594;49.794;18.652;2022-08-18T14:41:43;97677.72;;;32.99;63.52
35479;BME280;21594;49.794;18.652;2022-08-18T14:44:09;97690.03;;;32.49;62.64
35479;BME280;21594;49.794;18.652;2022-08-18T14:46:37;97690.91;;;32.10;62.44
35479;BME280;21594;49.794;18.652;2022-08-18T14:49:03;97688.02;;;31.77;62.44
35479;BME280;21594;49.794;18.652;2022-08-18T14:51:31;97692.47;;;31.59;62.88
35479;BME280;21594;49.794;18.652;2022-08-18T14:54:00;97695.78;;;31.37;63.16
35479;BME280;21594;49.794;18.652;2022-08-18T14:56:27;97695.86;;;31.12;63.08
35479;BME280;21594;49.794;18.652;2022-08-18T14:58:54;97699.37;;;30.89;63.14
35479;BME280;21594;49.794;18.652;2022-08-18T15:01:20;97698.92;;;30.70;63.39
35479;BME280;21594;49.794;18.652;2022-08-18T15:03:47;97694.47;;;30.59;64.27
35479;BME280;21594;49.794;18.652;2022-08-18T15:06:13;97699.69;;;30.46;64.74
35479;BME280;21594;49.794;18.652;2022-08-18T15:08:39;97699.86;;;30.37;65.23
35479;BME280;21594;49.794;18.652;2022-08-18T15:11:06;97688.64;;;30.26;65.94
35479;BME280;21594;49.794;18.652;2022-08-18T15:13:32;97685.02;;;30.18;66.54
35479;BME280;21594;49.794;18.652;2022-08-18T15:15:59;97688.71;;;30.12;67.27
35479;BME280;21594;49.794;18.652;2022-08-18T15:18:26;97694.86;;;30.07;67.99
35479;BME280;21594;49.794;18.652;2022-08-18T15:20:52;97691.33;;;30.04;68.73
35479;BME280;21594;49.794;18.652;2022-08-18T15:23:47;97694.52;;;30.01;69.50
35479;BME280;21594;49.794;18.652;2022-08-18T15:26:32;97694.73;;;29.97;70.45
35479;BME280;21594;49.794;18.652;2022-08-18T15:28:58;97701.65;;;29.90;71.19
35479;BME280;21594;49.794;18.652;2022-08-18T15:31:25;97705.05;;;29.83;71.47
35479;BME280;21594;49.794;18.652;2022-08-18T15:33:52;97699.29;;;29.77;72.13
35479;BME280;21594;49.794;18.652;2022-08-18T15:36:19;97703.26;;;29.72;72.49
35479;BME280;21594;49.794;18.652;2022-08-18T15:38:47;97702.08;;;29.66;72.88
35479;BME280;21594;49.794;18.652;2022-08-18T15:41:36;97704.17;;;29.61;73.52
35479;BME280;21594;49.794;18.652;2022-08-18T15:44:02;97703.83;;;29.58;73.99
35479;BME280;21594;49.794;18.652;2022-08-18T15:51:34;97691.45;;;29.42;75.45